createdAt,value
2023-05-18T00:02:10.522Z,6.32
2023-05-18T00:04:40.101Z,6.31
2023-05-18T00:07:09.718Z,6.37
2023-05-18T00:09:39.133Z,6.26
2023-05-18T00:12:10.182Z,6.35
2023-05-18T00:14:39.519Z,6.33
2023-05-18T00:17:08.881Z,6.26
2023-05-18T00:19:38.344Z,6.24
2023-05-18T00:22:08.091Z,6.27
2023-05-18T00:24:37.483Z,6.13
2023-05-18T00:27:06.898Z,6.08
2023-05-18T00:29:36.681Z,6.12
2023-05-18T00:32:06.489Z,6.07
2023-05-18T00:34:36.263Z,6.06
2023-05-18T00:37:06.053Z,6.01
2023-05-18T00:39:35.532Z,5.98
2023-05-18T00:42:06.849Z,5.95
2023-05-18T00:44:36.304Z,5.87
2023-05-18T00:47:06.039Z,5.81
2023-05-18T00:49:35.342Z,5.81
2023-05-18T00:52:07.006Z,5.82
2023-05-18T00:54:36.883Z,5.76
2023-05-18T00:57:07.297Z,5.80
2023-05-18T00:59:36.969Z,5.74
2023-05-18T01:02:09.030Z,5.76
2023-05-18T01:04:40.057Z,5.75
2023-05-18T01:07:10.012Z,5.69
2023-05-18T01:09:39.379Z,5.65
2023-05-18T01:12:19.751Z,5.65
2023-05-18T01:15:02.051Z,5.55
2023-05-18T01:17:59.774Z,5.58
2023-05-18T01:20:33.675Z,5.60
2023-05-18T01:23:14.976Z,5.56
2023-05-18T01:25:50.343Z,5.56
2023-05-18T01:28:22.592Z,5.53
2023-05-18T01:30:52.665Z,5.52
2023-05-18T01:33:22.117Z,5.47
2023-05-18T01:35:51.949Z,5.43
2023-05-18T01:38:25.802Z,5.45
2023-05-18T01:41:16.117Z,5.49
2023-05-18T01:43:51.448Z,5.40
2023-05-18T01:46:39.004Z,5.46
2023-05-18T01:49:14.728Z,5.46
2023-05-18T01:51:46.637Z,5.35
2023-05-18T01:54:20.081Z,5.30
2023-05-18T01:56:50.633Z,5.28
2023-05-18T01:59:20.640Z,5.25
2023-05-18T02:01:50.176Z,5.36
2023-05-18T02:04:21.358Z,5.39
2023-05-18T02:06:52.322Z,5.36
2023-05-18T02:09:22.673Z,5.30
2023-05-18T02:11:52.790Z,5.26
2023-05-18T02:14:22.341Z,5.26
2023-05-18T02:16:53.360Z,5.16
2023-05-18T02:19:25.364Z,5.15
2023-05-18T02:21:56.277Z,5.17
2023-05-18T02:24:26.570Z,5.18
2023-05-18T02:26:56.188Z,5.12
2023-05-18T02:29:26.105Z,5.12
2023-05-18T02:31:55.996Z,5.13
2023-05-18T02:34:27.882Z,5.08
2023-05-18T02:37:00.597Z,5.10
2023-05-18T02:39:31.207Z,5.07
2023-05-18T02:42:01.736Z,5.00
2023-05-18T02:44:31.100Z,5.00
2023-05-18T02:47:00.538Z,4.97
2023-05-18T02:49:29.963Z,4.97
2023-05-18T02:51:59.316Z,4.98
2023-05-18T02:54:28.777Z,4.95
2023-05-18T02:56:58.844Z,4.98
2023-05-18T02:59:29.931Z,4.96
2023-05-18T03:01:59.361Z,4.98
2023-05-18T03:04:29.039Z,4.90
2023-05-18T03:07:00.745Z,4.83
2023-05-18T03:09:31.054Z,4.79
2023-05-18T03:12:01.275Z,4.78
2023-05-18T03:14:30.856Z,4.73
2023-05-18T03:17:00.658Z,4.67
2023-05-18T03:19:31.143Z,4.69
2023-05-18T03:22:01.231Z,4.65
2023-05-18T03:24:32.467Z,4.66
2023-05-18T03:27:02.414Z,4.67
2023-05-18T03:29:32.023Z,4.65
2023-05-18T03:32:02.506Z,4.60
2023-05-18T03:34:32.176Z,4.62
2023-05-18T03:37:01.990Z,4.58
2023-05-18T03:39:32.115Z,4.59
2023-05-18T03:42:02.074Z,4.59
2023-05-18T03:44:31.748Z,4.57
2023-05-18T03:47:01.083Z,4.56
2023-05-18T03:49:30.897Z,4.60
2023-05-18T03:52:00.185Z,4.58
2023-05-18T03:54:29.650Z,4.62
2023-05-18T03:56:59.039Z,4.68
2023-05-18T03:59:28.463Z,4.68
2023-05-18T04:01:57.977Z,4.70
2023-05-18T04:04:27.573Z,4.74
2023-05-18T04:06:57.211Z,4.64
2023-05-18T04:09:28.118Z,4.67
2023-05-18T04:11:57.538Z,4.62
2023-05-18T04:14:28.269Z,4.64
2023-05-18T04:16:58.607Z,4.67
2023-05-18T04:19:28.279Z,4.66
2023-05-18T04:21:59.241Z,4.77
2023-05-18T04:24:28.590Z,4.83
2023-05-18T04:26:59.586Z,4.85
2023-05-18T04:29:30.828Z,4.90
2023-05-18T04:32:01.382Z,4.98
2023-05-18T04:34:31.873Z,5.08
2023-05-18T04:37:03.860Z,5.08
2023-05-18T04:39:35.311Z,5.11
2023-05-18T04:42:06.527Z,5.12
2023-05-18T04:44:36.570Z,5.10
2023-05-18T04:47:08.516Z,5.18
2023-05-18T04:49:38.639Z,5.29
2023-05-18T04:52:10.004Z,5.42
2023-05-18T04:54:41.160Z,5.62
2023-05-18T04:57:10.840Z,5.57
2023-05-18T04:59:42.665Z,5.53
2023-05-18T05:02:12.274Z,5.53
2023-05-18T05:04:41.986Z,5.62
2023-05-18T05:07:11.623Z,5.68
2023-05-18T05:09:42.739Z,5.85
2023-05-18T05:12:12.217Z,5.72
2023-05-18T05:14:41.508Z,5.90
2023-05-18T05:17:12.633Z,5.90
2023-05-18T05:19:42.565Z,6.00
2023-05-18T05:22:12.650Z,6.19
2023-05-18T05:24:42.155Z,6.26
2023-05-18T05:27:11.586Z,6.37
2023-05-18T05:29:41.394Z,6.43
2023-05-18T05:32:12.398Z,6.35
2023-05-18T05:34:45.834Z,6.36
2023-05-18T05:37:15.629Z,6.21
2023-05-18T05:39:47.641Z,6.34
2023-05-18T05:42:19.305Z,6.33
2023-05-18T05:44:49.382Z,6.22
2023-05-18T05:47:19.661Z,6.27
2023-05-18T05:49:49.373Z,6.18
2023-05-18T05:52:18.863Z,5.99
2023-05-18T05:54:48.825Z,6.09
2023-05-18T05:57:18.360Z,6.12
2023-05-18T05:59:48.050Z,6.18
2023-05-18T06:02:17.518Z,6.15
2023-05-18T06:04:47.421Z,6.12
2023-05-18T06:07:17.051Z,6.22
2023-05-18T06:09:46.616Z,6.35
2023-05-18T06:12:16.701Z,6.44
2023-05-18T06:14:46.274Z,6.62
2023-05-18T06:17:15.727Z,6.77
2023-05-18T06:19:46.447Z,6.96
2023-05-18T06:22:15.906Z,7.11
2023-05-18T06:24:47.339Z,7.22
2023-05-18T06:27:21.566Z,7.24
2023-05-18T06:29:58.691Z,7.21
2023-05-18T06:32:39.099Z,7.14
2023-05-18T06:35:09.260Z,7.25
2023-05-18T06:37:39.777Z,7.23
2023-05-18T06:40:10.502Z,7.32
2023-05-18T06:42:39.919Z,7.25
2023-05-18T06:45:27.417Z,7.29
2023-05-18T06:47:58.631Z,7.47
2023-05-18T06:50:28.030Z,7.68
2023-05-18T06:52:57.570Z,7.97
2023-05-18T06:55:27.342Z,8.14
2023-05-18T06:57:58.351Z,8.17
2023-05-18T07:00:27.722Z,8.32
2023-05-18T07:02:58.079Z,8.42
2023-05-18T07:05:28.589Z,8.52
2023-05-18T07:07:58.213Z,8.62
2023-05-18T07:10:28.911Z,8.73
2023-05-18T07:12:58.350Z,8.97
2023-05-18T07:15:27.654Z,8.96
2023-05-18T07:17:57.745Z,8.97
2023-05-18T07:20:27.137Z,9.20
2023-05-18T07:22:56.679Z,9.37
2023-05-18T07:25:26.407Z,9.43
2023-05-18T07:27:56.410Z,9.33
2023-05-18T07:30:28.902Z,9.29
2023-05-18T07:32:58.257Z,9.43
2023-05-18T07:35:28.090Z,9.65
2023-05-18T07:37:57.913Z,9.83
2023-05-18T07:40:27.324Z,9.68
2023-05-18T07:42:56.629Z,9.85
2023-05-18T07:45:26.866Z,9.98
2023-05-18T07:47:57.726Z,10.08
2023-05-18T07:50:29.766Z,10.00
2023-05-18T07:52:59.300Z,10.06
2023-05-18T07:55:29.148Z,10.25
2023-05-18T07:58:00.573Z,10.34
2023-05-18T08:00:31.936Z,10.46
2023-05-18T08:03:01.455Z,10.52
2023-05-18T08:05:31.631Z,10.80
2023-05-18T08:08:04.539Z,10.88
2023-05-18T08:10:33.421Z,11.08
2023-05-18T08:13:02.704Z,11.34
2023-05-18T08:15:32.383Z,11.28
2023-05-18T08:18:02.215Z,11.19
2023-05-18T08:20:32.071Z,11.20
2023-05-18T08:23:01.508Z,11.37
2023-05-18T08:25:31.054Z,11.36
2023-05-18T08:28:00.583Z,11.49
2023-05-18T08:30:30.274Z,11.43
2023-05-18T08:32:59.731Z,11.27
2023-05-18T08:35:29.251Z,11.24
2023-05-18T08:37:58.749Z,11.35
2023-05-18T08:40:31.636Z,11.69
2023-05-18T08:43:17.611Z,11.81
2023-05-18T08:46:08.651Z,11.82
2023-05-18T08:48:38.881Z,11.83
2023-05-18T08:51:09.691Z,11.74
2023-05-18T08:53:39.741Z,11.94
2023-05-18T08:56:10.685Z,12.14
2023-05-18T08:58:45.839Z,12.14
2023-05-18T09:01:16.317Z,12.10
2023-05-18T09:03:48.637Z,11.62
2023-05-18T09:06:19.285Z,11.72
2023-05-18T09:08:49.310Z,11.79
2023-05-18T09:11:19.202Z,11.98
2023-05-18T09:13:51.244Z,11.80
2023-05-18T09:16:21.076Z,11.79
2023-05-18T09:18:50.509Z,12.05
2023-05-18T09:21:19.852Z,12.29
2023-05-18T09:23:49.723Z,12.50
2023-05-18T09:26:22.506Z,12.85
2023-05-18T09:28:55.405Z,12.98
2023-05-18T09:31:25.211Z,13.22
2023-05-18T09:33:54.883Z,13.51
2023-05-18T09:36:29.517Z,13.78
2023-05-18T09:38:59.026Z,13.63
2023-05-18T09:41:29.535Z,13.54
2023-05-18T09:43:58.962Z,13.91
2023-05-18T09:46:31.826Z,13.93
2023-05-18T09:52:15.832Z,14.59
2023-05-18T09:54:45.307Z,14.74
2023-05-18T09:57:15.577Z,14.64
2023-05-18T09:59:45.064Z,14.56
2023-05-18T10:02:15.740Z,15.54
2023-05-18T10:04:45.438Z,16.24
2023-05-18T10:07:17.446Z,17.31
2023-05-18T10:09:47.821Z,16.57
2023-05-18T10:12:20.596Z,16.56
2023-05-18T10:14:50.988Z,16.95
2023-05-18T10:17:20.742Z,16.76
2023-05-18T10:19:51.663Z,16.86
2023-05-18T10:22:23.512Z,17.03
2023-05-18T10:24:53.310Z,17.63
2023-05-18T10:27:24.860Z,17.45
2023-05-18T10:29:55.172Z,17.83
2023-05-18T10:32:25.438Z,18.00
2023-05-18T10:34:57.253Z,18.91
2023-05-18T10:37:29.146Z,19.05
2023-05-18T10:43:11.550Z,18.21
2023-05-18T10:45:41.052Z,18.67
2023-05-18T10:48:11.397Z,18.94
2023-05-18T10:50:41.689Z,19.39
2023-05-18T10:53:12.012Z,20.14
2023-05-18T10:55:41.411Z,19.78
2023-05-18T10:58:15.609Z,21.09
2023-05-18T11:00:49.892Z,20.94
2023-05-18T11:03:20.542Z,20.60
2023-05-18T11:06:10.342Z,19.94
2023-05-18T11:08:50.533Z,20.87
2023-05-18T11:11:23.486Z,22.63
2023-05-18T11:13:52.906Z,22.65
2023-05-18T11:16:22.349Z,22.05
2023-05-18T11:18:54.784Z,23.54
2023-05-18T11:21:31.798Z,23.13
2023-05-18T11:24:19.541Z,22.57
2023-05-18T11:26:57.415Z,21.71
2023-05-18T11:29:32.380Z,22.06
2023-05-18T11:32:02.619Z,21.69
2023-05-18T11:34:46.412Z,20.68
2023-05-18T11:37:21.046Z,19.39
2023-05-18T11:40:00.651Z,20.50
2023-05-18T11:42:34.414Z,20.02
2023-05-18T11:45:11.636Z,19.83
2023-05-18T11:47:42.188Z,20.19
2023-05-18T11:50:12.460Z,19.13
2023-05-18T11:52:50.041Z,19.73
2023-05-18T11:55:21.319Z,20.41
2023-05-18T11:57:54.961Z,20.29
2023-05-18T12:00:25.931Z,20.27
2023-05-18T12:02:57.358Z,20.02
2023-05-18T12:05:30.283Z,19.96
2023-05-18T12:08:00.564Z,19.96
2023-05-18T12:10:30.333Z,20.18
2023-05-18T12:13:00.535Z,19.89
2023-05-18T12:15:30.568Z,18.50
2023-05-18T12:18:00.360Z,19.97
2023-05-18T12:20:31.272Z,19.87
2023-05-18T12:23:01.303Z,19.38
2023-05-18T12:25:30.920Z,20.47
2023-05-18T12:28:00.399Z,20.71
2023-05-18T12:30:32.039Z,20.43
2023-05-18T12:33:07.005Z,19.71
2023-05-18T12:35:36.616Z,19.98
2023-05-18T12:38:06.138Z,19.42
2023-05-18T12:40:40.968Z,18.91
2023-05-18T12:43:10.474Z,19.21
2023-05-18T12:45:40.997Z,20.29
2023-05-18T12:48:13.112Z,19.76
2023-05-18T12:50:51.996Z,20.11
2023-05-18T12:53:21.552Z,20.52
2023-05-18T12:56:01.698Z,20.41
2023-05-18T12:58:32.908Z,20.30
2023-05-18T13:01:10.575Z,19.99
2023-05-18T13:03:43.401Z,20.49
2023-05-18T13:06:12.801Z,19.64
2023-05-18T13:08:42.938Z,19.78
2023-05-18T13:11:15.970Z,19.72
2023-05-18T13:14:02.356Z,19.82
2023-05-18T13:16:32.904Z,19.97
2023-05-18T13:19:04.765Z,20.10
2023-05-18T13:21:35.806Z,20.06
2023-05-18T13:24:06.366Z,19.74
2023-05-18T13:26:36.099Z,19.60
2023-05-18T13:29:05.526Z,19.65
2023-05-18T13:31:34.892Z,19.38
2023-05-18T13:34:04.813Z,19.83
2023-05-18T13:36:36.465Z,20.53
2023-05-18T13:39:07.738Z,19.54
2023-05-18T13:41:37.136Z,19.53
2023-05-18T13:44:06.952Z,19.35
2023-05-18T13:46:38.121Z,19.50
2023-05-18T13:49:07.713Z,18.98
2023-05-18T13:51:37.674Z,19.33
2023-05-18T13:54:08.277Z,19.28
2023-05-18T13:56:37.611Z,19.20
2023-05-18T13:59:06.929Z,19.20
2023-05-18T14:01:36.365Z,18.79
2023-05-18T14:04:06.630Z,18.71
2023-05-18T14:06:36.499Z,18.19
2023-05-18T14:09:06.204Z,18.19
2023-05-18T14:11:36.960Z,18.38
2023-05-18T14:14:06.936Z,18.54
2023-05-18T14:16:36.930Z,18.94
2023-05-18T14:19:06.340Z,19.05
2023-05-18T14:21:35.993Z,19.12
2023-05-18T14:24:07.590Z,19.10
2023-05-18T14:26:37.891Z,19.26
2023-05-18T14:29:07.204Z,19.45
2023-05-18T14:31:36.805Z,18.00
2023-05-18T14:34:06.279Z,17.64
2023-05-18T14:36:36.410Z,18.07
2023-05-18T14:39:06.367Z,17.55
2023-05-18T14:41:35.707Z,17.08
2023-05-18T14:44:06.738Z,17.22
2023-05-18T14:46:37.033Z,17.65
2023-05-18T14:49:06.506Z,18.12
2023-05-18T14:51:36.068Z,18.24
2023-05-18T14:54:05.539Z,17.57
2023-05-18T14:56:35.158Z,17.40
2023-05-18T14:59:04.612Z,16.74
2023-05-18T15:01:34.032Z,16.51
2023-05-18T15:04:04.173Z,16.65
2023-05-18T15:06:33.708Z,17.02
2023-05-18T15:09:04.696Z,16.84
2023-05-18T15:11:34.016Z,16.29
2023-05-18T15:14:03.604Z,16.28
2023-05-18T15:16:33.106Z,16.24
2023-05-18T15:19:02.671Z,15.99
2023-05-18T15:21:32.223Z,16.00
2023-05-18T15:24:01.815Z,16.38
2023-05-18T15:26:31.391Z,16.86
2023-05-18T15:29:00.924Z,17.07
2023-05-18T15:31:30.258Z,17.29
2023-05-18T15:33:59.910Z,17.21
2023-05-18T15:36:31.031Z,17.12
2023-05-18T15:39:02.091Z,16.47
2023-05-18T15:41:34.360Z,16.30
2023-05-18T15:44:04.018Z,16.06
2023-05-18T15:46:35.592Z,16.20
2023-05-18T15:49:05.559Z,16.26
2023-05-18T15:51:34.899Z,16.53
2023-05-18T15:54:04.389Z,16.32
2023-05-18T15:56:34.259Z,15.95
2023-05-18T15:59:03.559Z,16.21
2023-05-18T16:01:32.929Z,16.30
2023-05-18T16:04:02.957Z,16.33
2023-05-18T16:06:33.548Z,16.46
2023-05-18T16:09:03.291Z,16.69
2023-05-18T16:11:34.751Z,16.76
2023-05-18T16:14:05.265Z,16.46
2023-05-18T16:16:34.613Z,16.26
2023-05-18T16:19:05.536Z,16.27
2023-05-18T16:21:35.098Z,16.32
2023-05-18T16:24:05.080Z,16.26
2023-05-18T16:26:34.895Z,16.18
2023-05-18T16:29:04.854Z,16.58
2023-05-18T16:31:35.537Z,17.12
2023-05-18T16:34:05.098Z,17.15
2023-05-18T16:36:34.924Z,17.32
2023-05-18T16:39:04.639Z,17.68
2023-05-18T16:41:33.941Z,17.33
2023-05-18T16:44:03.350Z,17.39
2023-05-18T16:46:32.658Z,17.60
2023-05-18T16:49:02.256Z,17.47
2023-05-18T16:51:31.852Z,17.57
2023-05-18T16:54:01.653Z,17.85
2023-05-18T16:56:30.948Z,17.89
2023-05-18T16:59:00.297Z,17.56
2023-05-18T17:01:30.988Z,17.31
2023-05-18T17:04:00.587Z,17.33
2023-05-18T17:06:30.035Z,17.36
2023-05-18T17:08:59.457Z,17.53
2023-05-18T17:11:28.836Z,17.60
2023-05-18T17:14:00.046Z,17.45
2023-05-18T17:16:30.153Z,17.44
2023-05-18T17:19:00.091Z,17.41
2023-05-18T17:21:31.182Z,17.25
2023-05-18T17:24:01.328Z,17.23
2023-05-18T17:26:32.670Z,17.53
2023-05-18T17:29:02.317Z,17.23
2023-05-18T17:31:31.652Z,17.03
2023-05-18T17:34:00.967Z,16.80
2023-05-18T17:36:31.142Z,16.19
2023-05-18T17:39:00.756Z,16.10
2023-05-18T17:41:30.316Z,15.89
2023-05-18T17:43:59.692Z,15.73
2023-05-18T17:46:30.015Z,15.42
2023-05-18T17:49:01.566Z,15.37
2023-05-18T17:51:31.916Z,15.18
2023-05-18T17:54:01.629Z,14.95
2023-05-18T17:56:31.981Z,14.78
2023-05-18T17:59:01.865Z,14.65
2023-05-18T18:01:31.378Z,14.56
2023-05-18T18:04:00.944Z,14.36
2023-05-18T18:06:31.401Z,14.35
2023-05-18T18:09:00.837Z,14.08
2023-05-18T18:11:30.741Z,14.19
2023-05-18T18:14:01.081Z,14.23
2023-05-18T18:16:30.631Z,14.22
2023-05-18T18:19:00.153Z,14.15
2023-05-18T18:21:29.708Z,14.07
2023-05-18T18:23:59.152Z,13.98
2023-05-18T18:26:28.506Z,13.99
2023-05-18T18:28:57.979Z,13.89
2023-05-18T18:31:27.463Z,13.86
2023-05-18T18:33:56.840Z,13.95
2023-05-18T18:36:26.644Z,13.82
2023-05-18T18:38:56.889Z,13.81
2023-05-18T18:41:26.445Z,13.76
2023-05-18T18:43:57.394Z,13.73
2023-05-18T18:46:26.787Z,13.77
2023-05-18T18:48:56.164Z,13.74
2023-05-18T18:51:25.554Z,13.69
2023-05-18T18:53:54.896Z,13.66
2023-05-18T18:56:26.860Z,13.66
2023-05-18T18:58:56.569Z,13.60
2023-05-18T19:01:26.018Z,13.44
2023-05-18T19:03:56.103Z,13.34
2023-05-18T19:06:26.184Z,13.28
2023-05-18T19:08:55.935Z,13.25
2023-05-18T19:11:25.340Z,13.13
2023-05-18T19:13:54.871Z,13.02
2023-05-18T19:16:24.803Z,13.06
2023-05-18T19:18:54.344Z,13.03
2023-05-18T19:21:25.625Z,12.84
2023-05-18T19:23:55.143Z,12.74
2023-05-18T19:26:25.599Z,12.69
2023-05-18T19:28:55.127Z,12.61
2023-05-18T19:31:25.536Z,12.49
2023-05-18T19:33:55.402Z,12.37
2023-05-18T19:36:25.159Z,12.22
2023-05-18T19:38:55.893Z,12.07
2023-05-18T19:41:26.878Z,11.97
2023-05-18T19:43:56.469Z,11.89
2023-05-18T19:46:26.225Z,11.88
2023-05-18T19:51:24.963Z,11.69
2023-05-18T19:53:55.029Z,11.51
2023-05-18T19:56:24.605Z,11.51
2023-05-18T19:58:54.049Z,11.38
2023-05-18T20:01:24.949Z,11.31
2023-05-18T20:03:56.122Z,11.29
2023-05-18T20:06:25.779Z,11.24
2023-05-18T20:08:55.212Z,11.18
2023-05-18T20:11:25.168Z,11.04
2023-05-18T20:13:54.985Z,10.94
2023-05-18T20:16:26.423Z,10.78
2023-05-18T20:18:58.217Z,10.65
2023-05-18T20:21:27.668Z,10.61
2023-05-18T20:23:57.132Z,10.50
2023-05-18T20:26:30.490Z,10.43
2023-05-18T20:28:59.583Z,10.39
2023-05-18T20:31:28.969Z,10.36
2023-05-18T20:33:58.387Z,10.27
2023-05-18T20:36:27.846Z,10.21
2023-05-18T20:38:57.261Z,10.12
2023-05-18T20:41:28.369Z,10.12
2023-05-18T20:43:57.984Z,10.14
2023-05-18T20:46:28.002Z,10.08
2023-05-18T20:48:58.023Z,10.08
2023-05-18T20:51:28.260Z,9.97
2023-05-18T20:53:58.268Z,9.91
2023-05-18T20:56:29.603Z,9.86
2023-05-18T20:58:59.199Z,9.80
2023-05-18T21:01:29.147Z,9.72
2023-05-18T21:03:59.308Z,9.65
2023-05-18T21:06:29.079Z,9.70
2023-05-18T21:08:59.582Z,9.63
2023-05-18T21:11:30.760Z,9.62
2023-05-18T21:14:00.671Z,9.52
2023-05-18T21:16:30.418Z,9.45
2023-05-18T21:19:00.046Z,9.36
2023-05-18T21:21:29.500Z,9.35
2023-05-18T21:23:59.166Z,9.29
2023-05-18T21:26:28.532Z,9.25
2023-05-18T21:28:58.271Z,9.19
2023-05-18T21:31:27.818Z,9.12
2023-05-18T21:33:57.205Z,9.10
2023-05-18T21:36:34.592Z,9.05
2023-05-18T21:39:05.586Z,9.06
2023-05-18T21:41:36.640Z,9.03
2023-05-18T21:44:07.864Z,9.03
2023-05-18T21:46:38.229Z,9.03
2023-05-18T21:49:08.999Z,9.02
2023-05-18T21:51:38.311Z,9.02
2023-05-18T21:54:07.804Z,8.97
2023-05-18T21:56:37.144Z,8.87
2023-05-18T21:59:06.777Z,8.77
2023-05-18T22:01:36.196Z,8.73
2023-05-18T22:04:05.933Z,8.67
2023-05-18T22:06:35.725Z,8.57
2023-05-18T22:09:06.557Z,8.49
2023-05-18T22:11:36.856Z,8.44
2023-05-18T22:14:06.912Z,8.41
2023-05-18T22:16:36.252Z,8.41
2023-05-18T22:19:05.702Z,8.39
2023-05-18T22:21:35.404Z,8.40
2023-05-18T22:24:05.182Z,8.40
2023-05-18T22:26:34.809Z,8.36
2023-05-18T22:29:04.681Z,8.34
2023-05-18T22:31:34.294Z,8.27
2023-05-18T22:34:03.695Z,8.21
2023-05-18T22:36:35.314Z,8.21
2023-05-18T22:39:06.104Z,8.10
2023-05-18T22:41:35.514Z,8.18
2023-05-18T22:44:05.328Z,8.24
2023-05-18T22:46:34.730Z,8.25
2023-05-18T22:49:05.765Z,8.21
2023-05-18T22:51:35.772Z,8.22
2023-05-18T22:54:05.249Z,8.26
2023-05-18T22:56:35.603Z,8.27
2023-05-18T22:59:06.571Z,8.40
2023-05-18T23:01:37.771Z,8.50
2023-05-18T23:04:07.498Z,8.60
2023-05-18T23:06:36.907Z,8.59
2023-05-18T23:09:06.398Z,8.52
2023-05-18T23:11:35.716Z,8.47
2023-05-18T23:14:05.119Z,8.46
2023-05-18T23:16:34.630Z,8.50
2023-05-18T23:19:04.054Z,8.49
2023-05-18T23:21:33.437Z,8.53
2023-05-18T23:24:02.822Z,8.55
2023-05-18T23:26:32.214Z,8.57
2023-05-18T23:29:01.575Z,8.54
2023-05-18T23:31:31.645Z,8.45
2023-05-18T23:34:01.261Z,8.42
2023-05-18T23:36:34.528Z,8.42
2023-05-18T23:39:04.357Z,8.39
2023-05-18T23:41:33.949Z,8.36
2023-05-18T23:44:03.956Z,8.32
2023-05-18T23:46:34.881Z,8.33
2023-05-18T23:49:05.204Z,8.26
2023-05-18T23:54:54.179Z,8.17
2023-05-18T23:57:26.822Z,8.07
2023-05-18T23:59:56.972Z,8.06
